createdAt,value
2018-05-09T00:00:58.228Z,0
2018-05-09T00:01:58.954Z,0
2018-05-09T00:02:59.952Z,0
2018-05-09T00:04:00.764Z,0
2018-05-09T00:05:01.486Z,0
2018-05-09T00:06:02.201Z,0
2018-05-09T00:07:02.918Z,0
2018-05-09T00:08:03.641Z,0
2018-05-09T00:09:04.367Z,0
2018-05-09T00:10:05.082Z,0
2018-05-09T00:11:05.792Z,0
2018-05-09T00:12:06.562Z,0
2018-05-09T00:13:07.228Z,0
2018-05-09T00:14:07.956Z,0
2018-05-09T00:15:08.680Z,0
2018-05-09T00:16:09.413Z,0
2018-05-09T00:17:10.140Z,0
2018-05-09T00:18:10.860Z,0
2018-05-09T00:19:11.640Z,0
2018-05-09T00:20:12.348Z,0
2018-05-09T00:21:13.064Z,0
2018-05-09T00:22:13.788Z,0
2018-05-09T00:23:14.503Z,0
2018-05-09T00:24:15.239Z,0
2018-05-09T00:25:15.964Z,0
2018-05-09T00:26:16.689Z,0
2018-05-09T00:27:17.406Z,0
2018-05-09T00:28:18.128Z,0
2018-05-09T00:29:18.853Z,0
2018-05-09T00:30:19.581Z,0
2018-05-09T00:31:20.309Z,0
2018-05-09T00:32:21.293Z,0
2018-05-09T00:33:22.022Z,0
2018-05-09T00:34:22.742Z,0
2018-05-09T00:35:23.455Z,0
2018-05-09T00:36:24.180Z,0
2018-05-09T00:37:24.904Z,0
2018-05-09T00:38:25.616Z,0
2018-05-09T00:39:26.326Z,0
2018-05-09T00:40:27.055Z,0
2018-05-09T00:41:27.772Z,0
2018-05-09T00:42:28.507Z,0
2018-05-09T00:43:29.337Z,0
2018-05-09T00:44:30.109Z,0
2018-05-09T00:45:31.016Z,0
2018-05-09T00:46:31.796Z,0
2018-05-09T00:47:32.677Z,0
2018-05-09T00:48:33.437Z,0
2018-05-09T00:49:34.309Z,0
2018-05-09T00:50:35.171Z,0
2018-05-09T00:51:35.922Z,0
2018-05-09T00:52:36.768Z,0
2018-05-09T00:53:37.532Z,0
2018-05-09T00:54:38.265Z,0
2018-05-09T00:55:39.426Z,0
2018-05-09T00:56:40.268Z,0
2018-05-09T00:57:40.980Z,0
2018-05-09T00:58:41.722Z,0
2018-05-09T00:59:42.440Z,0
2018-05-09T01:00:43.265Z,0
2018-05-09T01:01:43.999Z,0
2018-05-09T01:02:44.706Z,0
2018-05-09T01:03:45.431Z,0
2018-05-09T01:04:46.136Z,0
2018-05-09T01:05:46.961Z,0
2018-05-09T01:06:47.680Z,0
2018-05-09T01:07:48.405Z,0
2018-05-09T01:08:49.131Z,0
2018-05-09T01:09:50.111Z,0
2018-05-09T01:10:50.830Z,0
2018-05-09T01:11:51.568Z,0
2018-05-09T01:12:52.283Z,0
2018-05-09T01:13:52.995Z,0
2018-05-09T01:14:53.714Z,0
2018-05-09T01:15:54.443Z,0
2018-05-09T01:16:55.161Z,0
2018-05-09T01:17:55.903Z,0
2018-05-09T01:18:56.629Z,0
2018-05-09T01:19:57.340Z,0
2018-05-09T01:20:58.071Z,0
2018-05-09T01:21:58.776Z,0
2018-05-09T01:22:59.513Z,0
2018-05-09T01:24:00.288Z,0
2018-05-09T01:25:00.956Z,0
2018-05-09T01:26:02.037Z,0
2018-05-09T01:27:02.767Z,0
2018-05-09T01:28:03.483Z,0
2018-05-09T01:29:04.222Z,0
2018-05-09T01:30:04.934Z,0
2018-05-09T01:31:05.661Z,0
2018-05-09T01:32:06.393Z,0
2018-05-09T01:33:07.109Z,0
2018-05-09T01:34:07.839Z,0
2018-05-09T01:35:08.563Z,0
2018-05-09T01:36:09.285Z,0
2018-05-09T01:37:10.007Z,0
2018-05-09T01:38:10.831Z,0
2018-05-09T01:39:11.559Z,0
2018-05-09T01:40:12.280Z,0
2018-05-09T01:41:13.015Z,0
2018-05-09T01:42:13.746Z,0
2018-05-09T01:43:14.513Z,0
2018-05-09T01:44:15.250Z,0
2018-05-09T01:45:15.957Z,0
2018-05-09T01:46:16.688Z,0
2018-05-09T01:47:17.403Z,0
2018-05-09T01:48:18.137Z,0
2018-05-09T01:49:18.843Z,0
2018-05-09T01:50:19.567Z,0
2018-05-09T01:51:20.276Z,0
2018-05-09T01:52:21.002Z,0
2018-05-09T01:53:21.754Z,0
2018-05-09T01:54:22.466Z,0
2018-05-09T01:55:23.187Z,0
2018-05-09T01:56:24.754Z,0
2018-05-09T01:57:25.476Z,0
2018-05-09T01:58:26.196Z,0
2018-05-09T01:59:26.910Z,0
2018-05-09T02:00:27.693Z,0
2018-05-09T02:01:28.416Z,0
2018-05-09T02:02:29.598Z,0
2018-05-09T02:03:30.318Z,0
2018-05-09T02:04:31.046Z,0
2018-05-09T02:05:31.780Z,0
2018-05-09T02:06:32.499Z,0
2018-05-09T02:07:33.263Z,0
2018-05-09T02:08:33.996Z,0
2018-05-09T02:09:34.727Z,0
2018-05-09T02:10:35.435Z,0
2018-05-09T02:11:36.147Z,0
2018-05-09T02:12:36.880Z,0
2018-05-09T02:13:37.756Z,0
2018-05-09T02:14:38.476Z,0
2018-05-09T02:15:39.197Z,0
2018-05-09T02:16:39.923Z,0
2018-05-09T02:17:40.703Z,0
2018-05-09T02:18:41.742Z,0
2018-05-09T02:19:42.462Z,0
2018-05-09T02:20:43.187Z,0
2018-05-09T02:21:43.909Z,0
2018-05-09T02:22:44.628Z,0
2018-05-09T02:23:45.350Z,0
2018-05-09T02:24:46.243Z,0
2018-05-09T02:25:46.963Z,0
2018-05-09T02:26:47.694Z,0
2018-05-09T02:27:48.428Z,0
2018-05-09T02:28:49.146Z,0
2018-05-09T02:29:50.633Z,0
2018-05-09T02:30:51.360Z,0
2018-05-09T02:31:52.083Z,0
2018-05-09T02:32:52.802Z,0
2018-05-09T02:33:53.520Z,0
2018-05-09T02:34:54.341Z,0
2018-05-09T02:35:55.069Z,0
2018-05-09T02:36:55.783Z,0
2018-05-09T02:37:56.513Z,0
2018-05-09T02:38:57.228Z,0
2018-05-09T02:39:57.997Z,0
2018-05-09T02:40:58.720Z,0
2018-05-09T02:41:59.444Z,0
2018-05-09T02:43:00.172Z,0
2018-05-09T02:44:00.885Z,0
2018-05-09T02:45:01.956Z,0
2018-05-09T02:46:02.692Z,0
2018-05-09T02:47:03.407Z,0
2018-05-09T02:48:04.143Z,0
2018-05-09T02:49:04.855Z,0
2018-05-09T02:50:05.588Z,0
2018-05-09T02:51:06.313Z,0
2018-05-09T02:52:07.039Z,0
2018-05-09T02:53:07.769Z,0
2018-05-09T02:54:08.484Z,0
2018-05-09T02:55:09.221Z,0
2018-05-09T02:56:09.938Z,0
2018-05-09T02:57:10.666Z,0
2018-05-09T02:58:11.378Z,0
2018-05-09T02:59:12.107Z,0
2018-05-09T03:00:12.846Z,0
2018-05-09T03:01:13.539Z,0
2018-05-09T03:02:14.264Z,0
2018-05-09T03:03:15.163Z,0
2018-05-09T03:04:15.900Z,0
2018-05-09T03:05:16.758Z,0
2018-05-09T03:06:17.570Z,0
2018-05-09T03:07:18.309Z,0
2018-05-09T03:08:19.135Z,0
2018-05-09T03:09:19.912Z,0
2018-05-09T03:10:20.789Z,0
2018-05-09T03:11:21.564Z,0
2018-05-09T03:12:22.337Z,0
2018-05-09T03:13:23.154Z,0
2018-05-09T03:14:23.912Z,0
2018-05-09T03:15:24.790Z,0
2018-05-09T03:16:25.656Z,0
2018-05-09T03:17:26.432Z,0
2018-05-09T03:18:27.338Z,0
2018-05-09T03:19:28.289Z,0
2018-05-09T03:20:29.065Z,0
2018-05-09T03:21:29.732Z,0
2018-05-09T03:22:30.705Z,0
2018-05-09T03:23:31.420Z,0
2018-05-09T03:24:32.257Z,0
2018-05-09T03:25:33.235Z,0
2018-05-09T03:26:33.949Z,0
2018-05-09T03:27:34.668Z,0
2018-05-09T03:28:35.412Z,0
2018-05-09T03:29:36.138Z,5
2018-05-09T03:30:36.856Z,5
2018-05-09T03:31:37.574Z,5
2018-05-09T03:32:38.290Z,5
2018-05-09T03:33:39.015Z,5
2018-05-09T03:34:39.750Z,5
2018-05-09T03:35:40.467Z,5
2018-05-09T03:36:41.183Z,5
2018-05-09T03:37:41.922Z,11
2018-05-09T03:38:42.686Z,11
2018-05-09T03:39:43.404Z,11
2018-05-09T03:40:44.138Z,11
2018-05-09T03:41:44.870Z,11
2018-05-09T03:42:45.591Z,16
2018-05-09T03:43:46.402Z,16
2018-05-09T03:44:47.123Z,16
2018-05-09T03:45:47.850Z,16
2018-05-09T03:46:48.577Z,22
2018-05-09T03:47:49.321Z,22
2018-05-09T03:48:50.285Z,22
2018-05-09T03:49:51.004Z,22
2018-05-09T03:50:51.729Z,28
2018-05-09T03:51:52.452Z,28
2018-05-09T03:52:53.285Z,28
2018-05-09T03:53:54.031Z,28
2018-05-09T03:54:54.740Z,33
2018-05-09T03:55:55.479Z,33
2018-05-09T03:56:56.198Z,33
2018-05-09T03:57:56.924Z,39
2018-05-09T03:58:57.642Z,39
2018-05-09T03:59:58.419Z,39
2018-05-09T04:00:59.148Z,45
2018-05-09T04:01:59.863Z,45
2018-05-09T04:03:00.837Z,45
2018-05-09T04:04:01.567Z,50
2018-05-09T04:05:02.297Z,50
2018-05-09T04:06:03.075Z,56
2018-05-09T04:07:03.814Z,56
2018-05-09T04:08:04.748Z,56
2018-05-09T04:09:05.462Z,61
2018-05-09T04:10:06.185Z,61
2018-05-09T04:11:07.216Z,61
2018-05-09T04:12:07.946Z,67
2018-05-09T04:13:08.946Z,67
2018-05-09T04:14:09.635Z,73
2018-05-09T04:15:10.370Z,73
2018-05-09T04:16:11.093Z,73
2018-05-09T04:17:11.808Z,78
2018-05-09T04:18:12.644Z,78
2018-05-09T04:19:13.373Z,78
2018-05-09T04:20:14.098Z,84
2018-05-09T04:21:14.869Z,84
2018-05-09T04:22:15.635Z,90
2018-05-09T04:23:16.361Z,90
2018-05-09T04:24:17.084Z,90
2018-05-09T04:25:17.829Z,95
2018-05-09T04:26:18.567Z,95
2018-05-09T04:27:19.291Z,101
2018-05-09T04:28:20.121Z,101
2018-05-09T04:29:20.845Z,101
2018-05-09T04:30:21.575Z,106
2018-05-09T04:31:22.297Z,106
2018-05-09T04:32:23.032Z,112
2018-05-09T04:33:23.761Z,112
2018-05-09T04:34:24.746Z,112
2018-05-09T04:35:25.464Z,118
2018-05-09T04:36:26.185Z,118
2018-05-09T04:37:26.920Z,123
2018-05-09T04:38:27.651Z,123
2018-05-09T04:39:28.369Z,129
2018-05-09T04:40:29.104Z,129
2018-05-09T04:41:29.833Z,129
2018-05-09T04:42:30.557Z,129
2018-05-09T04:43:31.282Z,135
2018-05-09T04:44:32.031Z,135
2018-05-09T04:45:32.756Z,135
2018-05-09T04:46:33.478Z,140
2018-05-09T04:47:34.515Z,140
2018-05-09T04:48:35.256Z,146
2018-05-09T04:49:35.985Z,146
2018-05-09T04:50:36.702Z,151
2018-05-09T04:51:37.421Z,151
2018-05-09T04:52:38.199Z,157
2018-05-09T04:53:38.903Z,157
2018-05-09T04:54:39.631Z,163
2018-05-09T04:55:40.472Z,163
2018-05-09T04:56:41.098Z,168
2018-05-09T04:57:41.974Z,168
2018-05-09T04:58:42.696Z,168
2018-05-09T04:59:43.433Z,168
2018-05-09T05:00:44.153Z,174
2018-05-09T05:01:44.880Z,174
2018-05-09T05:02:45.763Z,180
2018-05-09T05:03:46.484Z,180
2018-05-09T05:04:47.215Z,185
2018-05-09T05:05:47.940Z,185
2018-05-09T05:06:48.687Z,191
2018-05-09T05:07:49.464Z,196
2018-05-09T05:08:50.201Z,191
2018-05-09T05:09:50.934Z,196
2018-05-09T05:10:51.662Z,208
2018-05-09T05:11:52.456Z,225
2018-05-09T05:12:53.117Z,247
2018-05-09T05:13:53.844Z,303
2018-05-09T05:14:54.630Z,292
2018-05-09T05:15:55.354Z,253
2018-05-09T05:16:56.085Z,258
2018-05-09T05:17:56.811Z,275
2018-05-09T05:18:57.786Z,281
2018-05-09T05:19:58.770Z,253
2018-05-09T05:20:59.504Z,292
2018-05-09T05:22:00.239Z,320
2018-05-09T05:23:00.984Z,286
2018-05-09T05:24:01.714Z,360
2018-05-09T05:25:02.479Z,410
2018-05-09T05:26:03.229Z,337
2018-05-09T05:27:03.998Z,309
2018-05-09T05:28:04.690Z,315
2018-05-09T05:29:05.424Z,292
2018-05-09T05:30:06.209Z,270
2018-05-09T05:31:06.936Z,360
2018-05-09T05:32:07.921Z,382
2018-05-09T05:33:08.652Z,455
2018-05-09T05:34:09.385Z,540
2018-05-09T05:35:10.233Z,399
2018-05-09T05:36:10.964Z,348
2018-05-09T05:37:11.685Z,382
2018-05-09T05:38:12.436Z,371
2018-05-09T05:39:13.173Z,393
2018-05-09T05:40:13.914Z,388
2018-05-09T05:41:14.636Z,405
2018-05-09T05:42:15.457Z,360
2018-05-09T05:43:17.019Z,393
2018-05-09T05:44:17.973Z,348
2018-05-09T05:45:19.044Z,315
2018-05-09T05:46:19.695Z,298
2018-05-09T05:47:20.570Z,270
2018-05-09T05:48:21.303Z,286
2018-05-09T05:49:22.173Z,281
2018-05-09T05:50:22.908Z,298
2018-05-09T05:51:23.777Z,275
2018-05-09T05:52:24.501Z,275
2018-05-09T05:53:25.392Z,286
2018-05-09T05:54:26.522Z,281
2018-05-09T05:55:27.260Z,286
2018-05-09T05:56:27.989Z,281
2018-05-09T05:57:28.740Z,281
2018-05-09T05:58:29.461Z,286
2018-05-09T05:59:30.956Z,286
2018-05-09T06:00:31.690Z,286
2018-05-09T06:01:32.424Z,315
2018-05-09T06:02:33.177Z,292
2018-05-09T06:03:33.941Z,292
2018-05-09T06:04:34.727Z,298
2018-05-09T06:05:35.462Z,298
2018-05-09T06:06:36.192Z,303
2018-05-09T06:07:37.176Z,303
2018-05-09T06:08:37.906Z,303
2018-05-09T06:09:38.638Z,309
2018-05-09T06:10:39.358Z,309
2018-05-09T06:11:40.089Z,309
2018-05-09T06:12:40.813Z,309
2018-05-09T06:13:41.542Z,315
2018-05-09T06:14:42.277Z,315
2018-05-09T06:15:43.008Z,315
2018-05-09T06:16:43.748Z,315
2018-05-09T06:17:44.483Z,315
2018-05-09T06:18:45.209Z,320
2018-05-09T06:19:46.283Z,320
2018-05-09T06:20:47.012Z,320
2018-05-09T06:21:47.749Z,320
2018-05-09T06:22:48.555Z,320
2018-05-09T06:23:49.227Z,326
2018-05-09T06:24:49.930Z,326
2018-05-09T06:25:50.686Z,326
2018-05-09T06:26:51.403Z,331
2018-05-09T06:27:52.134Z,331
2018-05-09T06:28:52.857Z,348
2018-05-09T06:29:53.591Z,337
2018-05-09T06:30:54.391Z,348
2018-05-09T06:31:55.046Z,343
2018-05-09T06:32:55.777Z,337
2018-05-09T06:33:56.510Z,337
2018-05-09T06:34:57.488Z,343
2018-05-09T06:35:58.213Z,343
2018-05-09T06:36:58.945Z,343
2018-05-09T06:37:59.695Z,348
2018-05-09T06:39:00.421Z,360
2018-05-09T06:40:01.228Z,348
2018-05-09T06:41:01.956Z,376
2018-05-09T06:42:02.972Z,376
2018-05-09T06:43:03.700Z,354
2018-05-09T06:44:04.945Z,354
2018-05-09T06:45:06.327Z,365
2018-05-09T06:46:07.633Z,360
2018-05-09T06:47:08.349Z,360
2018-05-09T06:48:09.094Z,360
2018-05-09T06:49:09.828Z,360
2018-05-09T06:50:10.561Z,365
2018-05-09T06:51:11.289Z,365
2018-05-09T06:52:12.036Z,365
2018-05-09T06:53:12.764Z,365
2018-05-09T06:54:13.500Z,365
2018-05-09T06:55:14.229Z,371
2018-05-09T06:56:14.957Z,376
2018-05-09T06:57:15.768Z,388
2018-05-09T06:58:16.434Z,376
2018-05-09T06:59:17.883Z,450
2018-05-09T07:00:18.613Z,427
2018-05-09T07:01:19.338Z,399
2018-05-09T07:02:20.072Z,421
2018-05-09T07:03:20.796Z,646
2018-05-09T07:04:21.531Z,883
2018-05-09T07:05:22.252Z,573
2018-05-09T07:06:23.193Z,455
2018-05-09T07:07:23.800Z,506
2018-05-09T07:08:24.589Z,562
2018-05-09T07:09:25.343Z,1563
2018-05-09T07:10:26.057Z,1496
2018-05-09T07:11:26.796Z,1698
2018-05-09T07:12:27.533Z,1563
2018-05-09T07:13:28.404Z,1726
2018-05-09T07:14:29.400Z,1445
2018-05-09T07:15:30.383Z,1074
2018-05-09T07:16:31.130Z,1198
2018-05-09T07:17:31.861Z,1260
2018-05-09T07:18:32.597Z,1614
2018-05-09T07:19:33.324Z,1693
2018-05-09T07:20:34.065Z,1861
2018-05-09T07:21:35.293Z,1940
2018-05-09T07:22:36.021Z,2019
2018-05-09T07:23:36.809Z,2019
2018-05-09T07:24:37.572Z,1895
2018-05-09T07:25:38.301Z,1800
2018-05-09T07:26:39.075Z,1710
2018-05-09T07:27:40.450Z,1698
2018-05-09T07:28:41.920Z,1653
2018-05-09T07:29:43.071Z,1648
2018-05-09T07:30:43.819Z,1665
2018-05-09T07:31:44.568Z,1710
2018-05-09T07:32:45.284Z,1783
2018-05-09T07:33:46.333Z,1878
2018-05-09T07:34:47.426Z,1704
2018-05-09T07:35:48.170Z,1878
2018-05-09T07:36:48.899Z,2216
2018-05-09T07:37:49.885Z,2323
2018-05-09T07:38:50.608Z,2086
2018-05-09T07:39:51.344Z,2373
2018-05-09T07:40:52.081Z,2396
2018-05-09T07:41:52.803Z,2424
2018-05-09T07:42:53.544Z,2424
2018-05-09T07:43:54.277Z,2396
2018-05-09T07:44:55.005Z,2385
2018-05-09T07:45:56.057Z,2368
2018-05-09T07:46:56.788Z,2368
2018-05-09T07:47:57.594Z,2351
2018-05-09T07:48:58.261Z,2295
2018-05-09T07:49:58.990Z,2250
2018-05-09T07:50:59.718Z,2210
2018-05-09T07:52:00.549Z,2171
2018-05-09T07:53:01.275Z,2154
2018-05-09T07:54:02.025Z,2171
2018-05-09T07:55:02.749Z,2210
2018-05-09T07:56:03.490Z,2272
2018-05-09T07:57:04.220Z,2340
2018-05-09T07:58:04.961Z,2396
2018-05-09T07:59:05.697Z,2446
2018-05-09T08:00:06.434Z,2475
2018-05-09T08:01:07.179Z,2480
2018-05-09T08:02:08.028Z,2480
2018-05-09T08:03:08.762Z,2463
2018-05-09T08:04:09.507Z,2458
2018-05-09T08:05:10.499Z,2475
2018-05-09T08:06:11.228Z,2435
2018-05-09T08:07:11.973Z,2356
2018-05-09T08:08:12.703Z,2306
2018-05-09T08:09:13.428Z,2238
2018-05-09T08:10:14.171Z,2188
2018-05-09T08:11:14.914Z,2171
2018-05-09T08:12:15.648Z,2199
2018-05-09T08:13:16.383Z,2289
2018-05-09T08:14:17.167Z,2362
2018-05-09T08:15:17.901Z,2418
2018-05-09T08:16:18.638Z,2458
2018-05-09T08:17:19.369Z,2469
2018-05-09T08:18:20.111Z,2463
2018-05-09T08:19:20.887Z,2418
2018-05-09T08:20:21.636Z,2385
2018-05-09T08:21:22.368Z,2345
2018-05-09T08:22:23.110Z,2356
2018-05-09T08:23:23.838Z,2430
2018-05-09T08:24:24.628Z,2525
2018-05-09T08:25:25.363Z,2621
2018-05-09T08:26:26.487Z,2677
2018-05-09T08:27:27.218Z,2733
2018-05-09T08:28:27.953Z,2795
2018-05-09T08:29:28.687Z,2812
2018-05-09T08:30:29.473Z,2784
2018-05-09T08:31:30.428Z,2773
2018-05-09T08:32:31.161Z,2728
2018-05-09T08:33:31.891Z,2655
2018-05-09T08:34:32.647Z,2542
2018-05-09T08:35:33.565Z,2413
2018-05-09T08:36:34.490Z,2311
2018-05-09T08:37:35.196Z,2266
2018-05-09T08:38:35.920Z,2255
2018-05-09T08:39:37.326Z,2323
2018-05-09T08:40:38.350Z,2430
2018-05-09T08:41:39.644Z,2598
2018-05-09T08:42:40.378Z,2761
2018-05-09T08:43:41.182Z,2896
2018-05-09T08:44:41.853Z,2998
2018-05-09T08:45:42.595Z,3054
2018-05-09T08:46:43.328Z,3099
2018-05-09T08:47:44.316Z,3133
2018-05-09T08:48:45.066Z,3144
2018-05-09T08:49:45.802Z,3161
2018-05-09T08:50:46.537Z,3172
2018-05-09T08:51:47.541Z,3178
2018-05-09T08:52:48.269Z,3183
2018-05-09T08:53:49.107Z,3178
2018-05-09T08:54:49.842Z,3150
2018-05-09T08:55:50.579Z,3150
2018-05-09T08:56:51.307Z,3166
2018-05-09T08:57:52.058Z,3183
2018-05-09T08:58:52.929Z,3183
2018-05-09T08:59:54.081Z,3183
2018-05-09T09:00:54.811Z,3166
2018-05-09T09:01:55.820Z,3150
2018-05-09T09:02:56.553Z,3121
2018-05-09T09:03:57.339Z,3110
2018-05-09T09:04:58.075Z,3093
2018-05-09T09:05:58.810Z,3071
2018-05-09T09:06:59.559Z,3048
2018-05-09T09:08:00.300Z,3015
2018-05-09T09:09:01.737Z,2981
2018-05-09T09:10:02.490Z,2992
2018-05-09T09:11:03.486Z,3031
2018-05-09T09:12:04.905Z,3093
2018-05-09T09:13:05.632Z,3133
2018-05-09T09:14:06.370Z,3183
2018-05-09T09:15:07.132Z,3234
2018-05-09T09:16:07.873Z,3268
2018-05-09T09:17:08.611Z,3307
2018-05-09T09:18:09.337Z,3324
2018-05-09T09:19:10.083Z,3324
2018-05-09T09:20:11.604Z,3296
2018-05-09T09:21:12.968Z,3262
2018-05-09T09:22:13.790Z,3195
2018-05-09T09:23:14.529Z,3133
2018-05-09T09:24:15.527Z,3082
2018-05-09T09:25:16.257Z,3020
2018-05-09T09:26:16.984Z,2970
2018-05-09T09:27:17.732Z,2970
2018-05-09T09:28:18.875Z,2981
2018-05-09T09:29:19.654Z,3015
2018-05-09T09:30:20.349Z,3065
2018-05-09T09:31:21.077Z,3121
2018-05-09T09:32:22.069Z,3183
2018-05-09T09:33:23.038Z,3245
2018-05-09T09:34:23.788Z,3346
2018-05-09T09:35:24.518Z,3414
2018-05-09T09:36:25.253Z,3476
2018-05-09T09:37:26.000Z,3521
2018-05-09T09:38:26.731Z,3577
2018-05-09T09:39:27.468Z,3633
2018-05-09T09:40:28.267Z,3706
2018-05-09T09:41:29.026Z,3678
2018-05-09T09:42:29.734Z,3622
2018-05-09T09:43:30.465Z,3583
2018-05-09T09:44:31.231Z,3566
2018-05-09T09:45:31.952Z,3633
2018-05-09T09:46:32.699Z,2655
2018-05-09T09:47:33.429Z,2756
2018-05-09T09:48:34.437Z,3886
2018-05-09T09:49:35.312Z,3892
2018-05-09T09:50:36.052Z,3841
2018-05-09T09:51:36.778Z,3825
2018-05-09T09:52:37.517Z,3757
2018-05-09T09:53:38.287Z,3712
2018-05-09T09:54:39.178Z,3678
2018-05-09T09:55:39.918Z,3684
2018-05-09T09:56:40.650Z,3706
2018-05-09T09:57:41.391Z,3718
2018-05-09T09:58:42.121Z,3751
2018-05-09T09:59:42.883Z,3735
2018-05-09T10:00:44.063Z,3678
2018-05-09T10:01:44.795Z,3639
2018-05-09T10:02:45.537Z,3628
2018-05-09T10:03:46.282Z,3616
2018-05-09T10:04:47.029Z,3667
2018-05-09T10:05:48.217Z,3645
2018-05-09T10:06:48.956Z,3622
2018-05-09T10:07:49.951Z,3667
2018-05-09T10:08:50.686Z,3712
2018-05-09T10:09:51.425Z,3690
2018-05-09T10:10:52.415Z,3667
2018-05-09T10:11:53.162Z,3628
2018-05-09T10:12:54.150Z,3622
2018-05-09T10:13:54.883Z,3583
2018-05-09T10:14:55.644Z,3538
2018-05-09T10:15:56.499Z,3538
2018-05-09T10:16:57.199Z,3543
2018-05-09T10:17:57.946Z,3560
2018-05-09T10:18:58.689Z,3538
2018-05-09T10:19:59.439Z,3442
2018-05-09T10:21:00.174Z,3470
2018-05-09T10:22:00.911Z,3481
2018-05-09T10:23:01.665Z,3470
2018-05-09T10:24:02.394Z,3538
2018-05-09T10:25:03.139Z,3549
2018-05-09T10:26:03.866Z,1558
2018-05-09T10:27:04.611Z,3751
2018-05-09T10:28:05.352Z,3138
2018-05-09T10:29:06.140Z,3847
2018-05-09T10:30:06.876Z,2458
2018-05-09T10:31:07.622Z,3892
2018-05-09T10:32:08.351Z,3920
2018-05-09T10:33:09.099Z,3948
2018-05-09T10:34:09.832Z,3903
2018-05-09T10:35:10.571Z,3965
2018-05-09T10:36:11.364Z,3931
2018-05-09T10:37:12.103Z,4016
2018-05-09T10:38:12.845Z,4016
2018-05-09T10:39:13.588Z,3954
2018-05-09T10:40:14.330Z,3864
2018-05-09T10:41:15.324Z,3802
2018-05-09T10:42:16.067Z,3763
2018-05-09T10:43:16.819Z,3785
2018-05-09T10:44:17.557Z,3791
2018-05-09T10:45:18.545Z,3813
2018-05-09T10:46:19.288Z,3813
2018-05-09T10:47:20.382Z,3785
2018-05-09T10:48:21.377Z,3729
2018-05-09T10:49:22.125Z,3729
2018-05-09T10:50:22.875Z,3706
2018-05-09T10:51:23.613Z,3701
2018-05-09T10:52:24.352Z,3695
2018-05-09T10:53:25.333Z,3712
2018-05-09T10:54:26.078Z,3690
2018-05-09T10:55:26.821Z,3560
2018-05-09T10:56:27.580Z,3459
2018-05-09T10:57:28.349Z,3420
2018-05-09T10:58:29.088Z,3369
2018-05-09T10:59:29.824Z,3301
2018-05-09T11:00:30.573Z,3273
2018-05-09T11:01:31.308Z,3223
2018-05-09T11:02:32.044Z,3296
2018-05-09T11:03:32.773Z,3420
2018-05-09T11:04:33.663Z,3195
2018-05-09T11:05:34.405Z,2463
2018-05-09T11:06:35.155Z,3234
2018-05-09T11:07:36.155Z,3588
2018-05-09T11:08:36.878Z,3583
2018-05-09T11:09:37.621Z,3543
2018-05-09T11:10:38.409Z,3549
2018-05-09T11:11:39.105Z,3560
2018-05-09T11:12:39.841Z,3594
2018-05-09T11:13:40.579Z,3645
2018-05-09T11:14:41.316Z,3656
2018-05-09T11:15:42.069Z,3673
2018-05-09T11:16:42.806Z,3712
2018-05-09T11:17:43.553Z,3684
2018-05-09T11:18:44.299Z,3549
2018-05-09T11:19:45.043Z,3431
2018-05-09T11:20:45.789Z,3240
2018-05-09T11:21:47.179Z,3065
2018-05-09T11:22:47.908Z,2919
2018-05-09T11:23:48.685Z,2756
2018-05-09T11:24:49.423Z,2626
2018-05-09T11:25:50.177Z,2565
2018-05-09T11:26:50.908Z,2666
2018-05-09T11:27:51.698Z,2655
2018-05-09T11:28:52.424Z,2851
2018-05-09T11:29:53.170Z,2908
2018-05-09T11:30:53.942Z,2947
2018-05-09T11:31:54.686Z,2941
2018-05-09T11:32:55.563Z,2953
2018-05-09T11:33:56.296Z,2936
2018-05-09T11:34:57.044Z,2846
2018-05-09T11:35:57.786Z,2778
2018-05-09T11:36:58.779Z,2795
2018-05-09T11:37:59.562Z,2790
2018-05-09T11:39:01.527Z,2913
2018-05-09T11:40:02.726Z,3082
2018-05-09T11:41:04.391Z,3183
2018-05-09T11:42:05.306Z,3324
2018-05-09T11:43:06.052Z,3465
2018-05-09T11:44:06.791Z,3571
2018-05-09T11:45:07.588Z,3605
2018-05-09T11:46:08.458Z,3628
2018-05-09T11:47:09.192Z,3600
2018-05-09T11:48:09.935Z,3600
2018-05-09T11:49:10.680Z,3583
2018-05-09T11:50:11.512Z,3526
2018-05-09T11:51:12.245Z,3510
2018-05-09T11:52:12.988Z,3538
2018-05-09T11:53:13.765Z,3571
2018-05-09T11:54:14.495Z,3633
2018-05-09T11:55:15.230Z,3633
2018-05-09T11:56:16.242Z,3616
2018-05-09T11:57:16.977Z,3616
2018-05-09T11:58:17.961Z,3650
2018-05-09T11:59:18.705Z,3628
2018-05-09T12:00:19.446Z,3577
2018-05-09T12:01:20.462Z,3549
2018-05-09T12:02:21.274Z,3510
2018-05-09T12:03:21.920Z,3549
2018-05-09T12:04:22.667Z,3571
2018-05-09T12:05:23.661Z,3588
2018-05-09T12:06:24.403Z,3543
2018-05-09T12:07:26.932Z,3504
2018-05-09T12:08:27.852Z,3453
2018-05-09T12:09:28.887Z,3375
2018-05-09T12:10:29.905Z,3262
2018-05-09T12:11:30.843Z,3048
2018-05-09T12:12:31.864Z,2891
2018-05-09T12:13:32.893Z,2767
2018-05-09T12:14:33.913Z,2666
2018-05-09T12:15:34.994Z,2553
2018-05-09T12:16:36.033Z,2503
2018-05-09T12:17:37.502Z,2475
2018-05-09T12:18:38.971Z,2559
2018-05-09T12:19:40.837Z,2655
2018-05-09T12:20:42.410Z,2863
2018-05-09T12:21:43.696Z,2975
2018-05-09T12:22:44.742Z,3082
2018-05-09T12:23:45.919Z,3155
2018-05-09T12:24:46.952Z,3262
2018-05-09T12:25:47.851Z,3273
2018-05-09T12:26:48.745Z,3256
2018-05-09T12:27:49.953Z,3279
2018-05-09T12:28:50.886Z,3273
2018-05-09T12:29:52.598Z,3290
2018-05-09T12:30:53.688Z,2446
2018-05-09T12:31:54.988Z,3346
2018-05-09T12:32:56.109Z,3436
2018-05-09T12:33:56.931Z,3442
2018-05-09T12:34:58.121Z,3470
2018-05-09T12:36:00.418Z,3375
2018-05-09T12:37:01.561Z,3431
2018-05-09T12:38:02.380Z,3391
2018-05-09T12:39:03.476Z,3459
2018-05-09T12:40:04.296Z,849
2018-05-09T12:41:05.453Z,3414
2018-05-09T12:42:06.913Z,3465
2018-05-09T12:43:07.731Z,3375
2018-05-09T12:44:08.457Z,3448
2018-05-09T12:45:09.546Z,3431
2018-05-09T12:46:10.838Z,3448
2018-05-09T12:47:11.861Z,3420
2018-05-09T12:48:12.968Z,3442
2018-05-09T12:49:13.983Z,3391
2018-05-09T12:50:15.035Z,3414
2018-05-09T12:51:16.875Z,3408
2018-05-09T12:52:18.121Z,900
2018-05-09T12:53:18.951Z,843
2018-05-09T12:54:20.540Z,3346
2018-05-09T12:55:22.023Z,2373
2018-05-09T12:56:24.297Z,855
2018-05-09T12:57:25.861Z,3341
2018-05-09T12:58:26.907Z,3211
2018-05-09T12:59:27.907Z,3183
2018-05-09T13:00:28.983Z,3116
2018-05-09T13:01:29.843Z,3099
2018-05-09T13:02:31.263Z,3110
2018-05-09T13:03:32.487Z,1445
2018-05-09T13:04:33.416Z,3161
2018-05-09T13:05:34.918Z,2896
2018-05-09T13:06:36.085Z,2975
2018-05-09T13:07:36.814Z,2536
2018-05-09T13:08:38.161Z,1113
2018-05-09T13:09:39.077Z,3133
2018-05-09T13:10:40.130Z,3082
2018-05-09T13:11:41.381Z,3110
2018-05-09T13:12:42.334Z,3110
2018-05-09T13:13:43.398Z,3088
2018-05-09T13:14:44.666Z,3138
2018-05-09T13:15:46.024Z,3099
2018-05-09T13:16:46.949Z,3133
2018-05-09T13:17:48.067Z,3099
2018-05-09T13:18:49.014Z,3060
2018-05-09T13:19:49.894Z,2930
2018-05-09T13:20:51.028Z,1468
2018-05-09T13:21:52.346Z,2812
2018-05-09T13:22:53.723Z,1102
2018-05-09T13:23:54.806Z,1080
2018-05-09T13:24:56.814Z,2632
2018-05-09T13:25:59.168Z,1350
2018-05-09T13:27:00.857Z,1074
2018-05-09T13:28:02.806Z,1856
2018-05-09T13:29:03.804Z,3099
2018-05-09T13:30:04.873Z,3307
2018-05-09T13:31:05.979Z,3285
2018-05-09T13:32:07.530Z,3262
2018-05-09T13:33:09.150Z,2936
2018-05-09T13:34:10.005Z,3223
2018-05-09T13:35:11.650Z,2851
2018-05-09T13:36:13.110Z,1271
2018-05-09T13:37:13.903Z,1845
2018-05-09T13:38:14.845Z,2278
2018-05-09T13:39:15.974Z,1614
2018-05-09T13:40:17.405Z,866
2018-05-09T13:41:18.669Z,973
2018-05-09T13:42:19.563Z,714
2018-05-09T13:43:21.591Z,736
2018-05-09T13:44:22.973Z,804
2018-05-09T13:45:24.691Z,843
2018-05-09T13:46:26.746Z,866
2018-05-09T13:47:28.829Z,916
2018-05-09T13:48:30.295Z,2818
2018-05-09T13:49:32.475Z,945
2018-05-09T13:50:34.071Z,1006
2018-05-09T13:51:35.606Z,2947
2018-05-09T13:52:37.428Z,1530
2018-05-09T13:53:39.589Z,883
2018-05-09T13:54:41.239Z,855
2018-05-09T13:55:42.410Z,838
2018-05-09T13:56:44.082Z,2503
2018-05-09T13:57:45.418Z,1057
2018-05-09T13:58:46.592Z,1068
2018-05-09T13:59:47.486Z,770
2018-05-09T14:00:48.295Z,793
2018-05-09T14:01:49.098Z,810